createdAt,value
2018-07-15T00:00:51.041Z,6.80
2018-07-15T00:03:20.135Z,5.43
2018-07-15T00:05:49.251Z,4.13
2018-07-15T00:08:18.364Z,3.33
2018-07-15T00:10:47.543Z,3.30
2018-07-15T00:13:16.615Z,5.30
2018-07-15T00:15:45.739Z,5.40
2018-07-15T00:18:14.827Z,6.87
2018-07-15T00:20:43.955Z,5.10
2018-07-15T00:23:13.035Z,7.63
2018-07-15T00:25:42.129Z,7.40
2018-07-15T00:28:11.241Z,5.37
2018-07-15T00:30:40.356Z,6.00
2018-07-15T00:33:09.440Z,9.03
2018-07-15T00:35:38.509Z,5.00
2018-07-15T00:38:07.884Z,5.70
2018-07-15T00:40:36.960Z,4.83
2018-07-15T00:43:06.067Z,7.23
2018-07-15T00:45:35.167Z,6.63
2018-07-15T00:48:04.381Z,5.80
2018-07-15T00:50:33.451Z,6.67
2018-07-15T00:53:02.553Z,10.73
2018-07-15T00:55:31.636Z,6.73
2018-07-15T00:58:00.739Z,6.03
2018-07-15T01:00:35.220Z,4.60
2018-07-15T01:03:04.359Z,5.37
2018-07-15T01:05:33.465Z,7.40
2018-07-15T01:08:02.547Z,6.90
2018-07-15T01:10:31.660Z,6.27
2018-07-15T01:13:00.756Z,8.97
2018-07-15T01:15:29.832Z,4.47
2018-07-15T01:17:58.940Z,5.50
2018-07-15T01:20:28.051Z,4.20
2018-07-15T01:22:57.161Z,4.10
2018-07-15T01:25:26.236Z,4.43
2018-07-15T01:27:55.328Z,4.40
2018-07-15T01:30:24.408Z,5.70
2018-07-15T01:32:53.501Z,4.87
2018-07-15T01:35:22.603Z,3.80
2018-07-15T01:37:51.696Z,3.90
2018-07-15T01:40:20.772Z,4.93
2018-07-15T01:42:49.872Z,6.17
2018-07-15T01:45:18.940Z,6.80
2018-07-15T01:47:48.045Z,5.57
2018-07-15T01:50:17.232Z,5.17
2018-07-15T01:52:46.324Z,7.60
2018-07-15T01:55:15.424Z,5.27
2018-07-15T01:57:44.508Z,4.67
2018-07-15T02:00:13.616Z,8.47
2018-07-15T02:02:42.738Z,4.23
2018-07-15T02:05:11.829Z,3.57
2018-07-15T02:07:40.896Z,7.33
2018-07-15T02:10:10.032Z,5.50
2018-07-15T02:12:39.096Z,4.10
2018-07-15T02:15:08.204Z,5.60
2018-07-15T02:17:37.264Z,8.37
2018-07-15T02:20:06.353Z,5.83
2018-07-15T02:22:35.419Z,4.03
2018-07-15T02:25:04.540Z,5.03
2018-07-15T02:27:33.624Z,5.10
2018-07-15T02:30:02.734Z,5.07
2018-07-15T02:32:31.804Z,4.60
2018-07-15T02:35:00.893Z,3.80
2018-07-15T02:37:29.967Z,4.90
2018-07-15T02:39:59.075Z,4.33
2018-07-15T02:42:28.167Z,7.13
2018-07-15T02:44:57.272Z,6.20
2018-07-15T02:47:26.344Z,6.33
2018-07-15T02:49:55.436Z,7.80
2018-07-15T02:52:24.594Z,4.60
2018-07-15T02:54:53.631Z,11.73
2018-07-15T02:57:22.716Z,5.37
2018-07-15T02:59:51.819Z,4.90
2018-07-15T03:02:20.920Z,4.70
2018-07-15T03:04:49.992Z,5.03
2018-07-15T03:07:19.085Z,10.10
2018-07-15T03:09:48.157Z,6.97
2018-07-15T03:12:17.252Z,5.87
2018-07-15T03:14:46.333Z,6.20
2018-07-15T03:17:15.516Z,7.40
2018-07-15T03:19:44.533Z,9.58
2018-07-15T03:22:13.624Z,7.50
2018-07-15T03:24:42.716Z,6.37
2018-07-15T03:27:11.829Z,4.70
2018-07-15T03:29:40.944Z,7.45
2018-07-15T03:32:10.065Z,7.60
2018-07-15T03:34:39.160Z,4.13
2018-07-15T03:37:08.296Z,6.03
2018-07-15T03:39:37.392Z,4.50
2018-07-15T03:42:06.760Z,5.80
2018-07-15T03:44:35.844Z,4.47
2018-07-15T03:47:05.099Z,6.27
2018-07-15T03:49:34.176Z,4.50
2018-07-15T03:52:03.289Z,7.30
2018-07-15T03:54:33.267Z,7.80
2018-07-15T03:57:02.396Z,6.07
2018-07-15T03:59:31.484Z,7.85
2018-07-15T04:02:00.723Z,8.30
2018-07-15T04:04:29.812Z,11.38
2018-07-15T04:06:58.949Z,6.00
2018-07-15T04:09:28.060Z,7.30
2018-07-15T04:11:57.158Z,6.97
2018-07-15T04:14:26.310Z,13.30
2018-07-15T04:16:55.435Z,6.10
2018-07-15T04:19:24.543Z,5.47
2018-07-15T04:21:53.648Z,8.43
2018-07-15T04:24:22.757Z,7.07
2018-07-15T04:26:51.896Z,10.20
2018-07-15T04:29:21.020Z,6.55
2018-07-15T04:31:50.171Z,12.50
2018-07-15T04:34:19.286Z,13.93
2018-07-15T04:36:48.407Z,12.70
2018-07-15T04:39:17.652Z,8.50
2018-07-15T04:41:46.736Z,9.83
2018-07-15T04:44:15.863Z,8.50
2018-07-15T04:46:44.949Z,9.63
2018-07-15T04:49:14.120Z,8.93
2018-07-15T04:51:43.611Z,10.33
2018-07-15T04:54:12.732Z,10.13
2018-07-15T04:56:42.740Z,11.65
2018-07-15T04:59:11.879Z,11.33
2018-07-15T05:01:43.680Z,7.65
2018-07-15T05:04:14.009Z,16.07
2018-07-15T05:06:43.704Z,13.27
2018-07-15T05:09:13.392Z,8.65
2018-07-15T05:11:42.485Z,12.83
2018-07-15T05:14:11.568Z,9.98
2018-07-15T05:16:40.684Z,12.33
2018-07-15T05:19:09.792Z,9.58
2018-07-15T05:21:38.910Z,10.80
2018-07-15T05:24:08.033Z,8.80
2018-07-15T05:26:37.135Z,11.45
2018-07-15T05:29:06.236Z,13.10
2018-07-15T05:31:35.344Z,7.50
2018-07-15T05:34:04.429Z,9.00
2018-07-15T05:36:33.548Z,7.10
2018-07-15T05:39:02.660Z,10.60
2018-07-15T05:41:31.766Z,7.33
2018-07-15T05:44:00.877Z,11.83
2018-07-15T05:46:30.025Z,8.15
2018-07-15T05:48:59.136Z,8.40
2018-07-15T05:51:28.248Z,11.85
2018-07-15T05:53:57.364Z,10.58
2018-07-15T05:56:26.465Z,11.77
2018-07-15T05:58:55.588Z,12.20
2018-07-15T06:01:25.022Z,9.03
2018-07-15T06:03:54.145Z,14.60
2018-07-15T06:06:23.254Z,9.03
2018-07-15T06:08:52.328Z,13.22
2018-07-15T06:11:21.443Z,9.38
2018-07-15T06:13:50.574Z,9.08
2018-07-15T06:16:19.683Z,8.33
2018-07-15T06:18:48.793Z,9.43
2018-07-15T06:21:17.892Z,8.75
2018-07-15T06:23:46.992Z,10.83
2018-07-15T06:26:16.149Z,10.53
2018-07-15T06:28:45.256Z,7.73
2018-07-15T06:31:14.356Z,8.90
2018-07-15T06:33:43.484Z,8.48
2018-07-15T06:36:12.567Z,7.62
2018-07-15T06:38:41.681Z,10.20
2018-07-15T06:41:10.787Z,10.78
2018-07-15T06:43:39.955Z,12.80
2018-07-15T06:46:10.008Z,11.63
2018-07-15T06:48:39.120Z,8.17
2018-07-15T06:51:08.223Z,12.00
2018-07-15T06:53:37.329Z,9.90
2018-07-15T06:56:06.462Z,7.73
2018-07-15T06:58:36.444Z,10.38
2018-07-15T07:01:05.520Z,14.30
2018-07-15T07:03:34.637Z,9.48
2018-07-15T07:06:03.732Z,8.67
2018-07-15T07:08:32.849Z,8.73
2018-07-15T07:11:01.930Z,5.70
2018-07-15T07:13:31.045Z,6.10
2018-07-15T07:16:00.121Z,6.03
2018-07-15T07:18:29.235Z,5.60
2018-07-15T07:20:58.325Z,8.50
2018-07-15T07:23:27.433Z,8.57
2018-07-15T07:25:56.547Z,6.60
2018-07-15T07:28:25.767Z,6.40
2018-07-15T07:30:54.860Z,9.55
2018-07-15T07:33:24.032Z,8.93
2018-07-15T07:35:53.121Z,5.10
2018-07-15T07:38:22.248Z,4.50
2018-07-15T07:40:51.372Z,9.55
2018-07-15T07:43:20.428Z,7.70
2018-07-15T07:45:49.516Z,5.78
2018-07-15T07:48:18.588Z,4.00
2018-07-15T07:50:47.715Z,4.90
2018-07-15T07:53:16.795Z,6.90
2018-07-15T07:55:45.872Z,7.30
2018-07-15T07:58:14.961Z,7.20
2018-07-15T08:00:44.075Z,6.20
2018-07-15T08:03:13.153Z,4.90
2018-07-15T08:05:42.236Z,5.37
2018-07-15T08:08:11.312Z,5.90
2018-07-15T08:10:40.428Z,9.00
2018-07-15T08:13:09.532Z,4.93
2018-07-15T08:15:38.617Z,5.70
2018-07-15T08:18:07.689Z,5.53
2018-07-15T08:20:36.789Z,6.20
2018-07-15T08:23:06.596Z,5.55
2018-07-15T08:25:35.701Z,4.10
2018-07-15T08:28:04.829Z,2.67
2018-07-15T08:30:45.386Z,3.90
2018-07-15T08:33:14.495Z,4.63
2018-07-15T08:35:43.588Z,3.93
2018-07-15T08:38:12.657Z,3.70
2018-07-15T08:40:41.833Z,2.50
2018-07-15T08:43:10.864Z,2.37
2018-07-15T08:45:39.984Z,3.35
2018-07-15T08:48:09.065Z,2.70
2018-07-15T08:50:38.200Z,2.60
2018-07-15T08:53:07.276Z,5.10
2018-07-15T08:55:36.505Z,1.80
2018-07-15T08:58:06.020Z,3.80
2018-07-15T09:00:35.112Z,7.33
2018-07-15T09:03:04.213Z,3.53
2018-07-15T09:05:33.279Z,2.70
2018-07-15T09:08:02.393Z,3.25
2018-07-15T09:10:32.432Z,2.12
2018-07-15T09:13:01.603Z,2.75
2018-07-15T09:15:30.839Z,2.27
2018-07-15T09:18:00.157Z,2.93
2018-07-15T09:28:55.496Z,3.35
2018-07-15T09:31:25.169Z,4.42
2018-07-15T09:33:54.380Z,9.75
2018-07-15T09:36:23.599Z,5.10
2018-07-15T09:38:52.951Z,2.35
2018-07-15T09:41:22.208Z,2.42
2018-07-15T09:43:51.505Z,3.50
2018-07-15T09:46:21.381Z,1.80
2018-07-15T09:48:50.673Z,3.20
2018-07-15T09:51:19.897Z,3.67
2018-07-15T09:53:49.087Z,2.70
2018-07-15T09:56:18.253Z,1.42
2018-07-15T09:58:47.840Z,2.20
2018-07-15T10:01:17.109Z,4.12
2018-07-15T10:03:46.332Z,5.05
2018-07-15T10:06:15.665Z,3.02
2018-07-15T10:08:44.884Z,2.30
2018-07-15T10:11:14.504Z,1.60
2018-07-15T10:13:43.613Z,1.40
2018-07-15T10:16:12.773Z,1.77
2018-07-15T10:18:41.869Z,1.77
2018-07-15T10:21:10.960Z,1.80
2018-07-15T10:23:40.078Z,1.40
2018-07-15T10:26:09.144Z,2.97
2018-07-15T10:28:38.276Z,3.50
2018-07-15T10:31:07.410Z,1.80
2018-07-15T10:33:36.491Z,1.50
2018-07-15T10:36:05.594Z,1.30
2018-07-15T10:38:34.672Z,3.83
2018-07-15T10:41:03.769Z,1.30
2018-07-15T10:43:32.876Z,3.20
2018-07-15T10:46:02.019Z,3.10
2018-07-15T10:48:32.155Z,4.50
2018-07-15T10:51:01.304Z,1.62
2018-07-15T10:53:30.577Z,2.75
2018-07-15T10:55:59.850Z,1.93
2018-07-15T10:58:29.168Z,2.43
2018-07-15T11:00:58.388Z,1.77
2018-07-15T11:03:27.600Z,2.23
2018-07-15T11:05:56.865Z,1.73
2018-07-15T11:08:26.316Z,1.83
2018-07-15T11:10:55.557Z,2.37
2018-07-15T11:13:24.960Z,2.87
2018-07-15T11:15:54.085Z,5.83
2018-07-15T11:18:23.370Z,2.43
2018-07-15T11:20:52.507Z,2.40
2018-07-15T11:23:21.796Z,1.43
2018-07-15T11:25:51.136Z,3.30
2018-07-15T11:28:20.263Z,1.70
2018-07-15T11:30:49.482Z,2.85
2018-07-15T11:33:19.008Z,4.00
2018-07-15T11:35:48.332Z,2.67
2018-07-15T11:38:17.805Z,1.30
2018-07-15T11:40:47.153Z,2.00
2018-07-15T11:43:16.626Z,2.90
2018-07-15T11:45:45.729Z,4.20
2018-07-15T11:48:14.907Z,2.93
2018-07-15T11:50:43.960Z,2.50
2018-07-15T11:53:13.055Z,2.30
2018-07-15T11:55:42.387Z,1.30
2018-07-15T11:58:11.830Z,1.73
2018-07-15T12:00:41.182Z,2.65
2018-07-15T12:03:10.369Z,1.37
2018-07-15T12:05:39.584Z,4.97
2018-07-15T12:08:08.665Z,3.97
2018-07-15T12:10:38.097Z,8.18
2018-07-15T12:13:07.355Z,2.07
2018-07-15T12:15:37.388Z,1.73
2018-07-15T12:18:06.729Z,1.57
2018-07-15T12:20:36.110Z,4.30
2018-07-15T12:23:05.492Z,1.87
2018-07-15T12:25:34.935Z,1.43
2018-07-15T12:28:04.216Z,3.08
2018-07-15T12:30:33.446Z,2.67
2018-07-15T12:33:02.629Z,1.22
2018-07-15T12:35:31.813Z,3.50
2018-07-15T12:38:01.697Z,4.23
2018-07-15T12:40:31.870Z,1.30
2018-07-15T12:43:01.988Z,1.47
2018-07-15T12:45:31.173Z,1.00
2018-07-15T12:48:00.416Z,1.57
2018-07-15T12:50:29.569Z,1.77
2018-07-15T12:52:59.037Z,1.10
2018-07-15T12:55:28.193Z,1.43
2018-07-15T12:57:57.426Z,3.27
2018-07-15T13:00:26.665Z,1.30
2018-07-15T13:02:56.172Z,1.57
2018-07-15T13:05:25.438Z,1.93
2018-07-15T13:07:54.638Z,3.17
2018-07-15T13:10:23.867Z,3.20
2018-07-15T13:12:53.115Z,1.33
2018-07-15T13:15:22.378Z,1.43
2018-07-15T13:17:51.497Z,2.15
2018-07-15T13:20:20.749Z,2.17
2018-07-15T13:22:49.995Z,1.37
2018-07-15T13:25:19.188Z,1.73
2018-07-15T13:27:48.331Z,1.10
2018-07-15T13:30:17.711Z,7.43
2018-07-15T13:32:46.932Z,3.52
2018-07-15T13:35:16.030Z,1.27
2018-07-15T13:37:45.172Z,2.27
2018-07-15T13:40:14.245Z,3.10
2018-07-15T13:42:43.391Z,1.97
2018-07-15T13:45:12.461Z,1.17
2018-07-15T13:47:42.201Z,1.73
2018-07-15T13:50:11.287Z,1.80
2018-07-15T13:52:40.392Z,4.33
2018-07-15T13:55:09.716Z,3.20
2018-07-15T13:57:38.880Z,1.27
2018-07-15T14:00:09.061Z,0.97
2018-07-15T14:02:38.412Z,1.10
2018-07-15T14:05:08.066Z,5.10
2018-07-15T14:07:37.216Z,1.00
2018-07-15T14:10:06.466Z,2.10
2018-07-15T14:12:35.783Z,1.35
2018-07-15T14:15:05.313Z,1.00
2018-07-15T14:17:34.420Z,1.07
2018-07-15T14:20:03.733Z,1.33
2018-07-15T14:22:32.898Z,1.40
2018-07-15T14:25:01.993Z,1.20
2018-07-15T14:27:31.116Z,1.97
2018-07-15T14:30:00.319Z,3.77
2018-07-15T14:32:29.476Z,2.87
2018-07-15T14:34:58.748Z,3.30
2018-07-15T14:37:27.837Z,2.40
2018-07-15T14:39:56.955Z,1.60
2018-07-15T14:42:26.032Z,1.63
2018-07-15T14:44:55.145Z,2.45
2018-07-15T14:47:24.248Z,1.12
2018-07-15T14:49:54.551Z,1.83
2018-07-15T14:52:23.668Z,1.37
2018-07-15T14:54:52.828Z,1.67
2018-07-15T14:57:21.940Z,2.45
2018-07-15T14:59:51.125Z,2.00
2018-07-15T15:02:20.253Z,0.80
2018-07-15T15:04:49.392Z,1.13
2018-07-15T15:07:18.484Z,0.90
2018-07-15T15:09:47.595Z,1.00
2018-07-15T15:12:16.704Z,1.47
2018-07-15T15:14:46.060Z,1.70
2018-07-15T15:17:15.261Z,2.23
2018-07-15T15:19:44.347Z,5.40
2018-07-15T15:22:13.639Z,1.23
2018-07-15T15:24:42.745Z,4.23
2018-07-15T15:27:11.939Z,1.53
2018-07-15T15:29:41.021Z,3.17
2018-07-15T15:32:10.182Z,1.77
2018-07-15T15:34:39.269Z,1.10
2018-07-15T15:37:08.480Z,1.43
2018-07-15T15:39:38.084Z,1.37
2018-07-15T15:42:07.248Z,3.57
2018-07-15T15:44:36.303Z,2.53
2018-07-15T15:47:05.397Z,3.23
2018-07-15T15:49:34.485Z,1.70
2018-07-15T15:52:03.719Z,1.20
2018-07-15T15:54:32.800Z,6.00
2018-07-15T15:57:01.925Z,3.35
2018-07-15T15:59:31.125Z,1.10
2018-07-15T16:02:00.392Z,4.70
2018-07-15T16:04:30.151Z,1.60
2018-07-15T16:06:59.492Z,3.17
2018-07-15T16:09:28.890Z,7.50
2018-07-15T16:11:58.269Z,3.27
2018-07-15T16:14:27.484Z,1.93
2018-07-15T16:16:56.688Z,0.90
2018-07-15T16:19:25.802Z,2.72
2018-07-15T16:21:54.896Z,1.17
2018-07-15T16:24:24.009Z,1.22
2018-07-15T16:26:53.109Z,5.57
2018-07-15T16:29:22.217Z,2.83
2018-07-15T16:31:51.316Z,1.77
2018-07-15T16:34:20.428Z,1.32
2018-07-15T16:36:49.720Z,4.00
2018-07-15T16:39:19.048Z,4.20
2018-07-15T16:41:48.261Z,1.10
2018-07-15T16:44:17.547Z,2.40
2018-07-15T16:46:46.672Z,1.87
2018-07-15T16:49:15.849Z,3.90
2018-07-15T16:51:44.949Z,3.40
2018-07-15T16:54:15.097Z,1.30
2018-07-15T16:56:44.203Z,1.23
2018-07-15T16:59:13.341Z,2.00
2018-07-15T17:01:42.483Z,1.10
2018-07-15T17:04:11.602Z,3.05
2018-07-15T17:06:40.829Z,5.47
2018-07-15T17:09:10.284Z,1.67
2018-07-15T17:11:39.596Z,1.80
2018-07-15T17:14:08.953Z,1.35
2018-07-15T17:16:38.162Z,1.33
2018-07-15T17:19:08.186Z,1.20
2018-07-15T17:21:37.298Z,2.00
2018-07-15T17:24:06.428Z,1.17
2018-07-15T17:26:35.501Z,1.57
2018-07-15T17:29:04.615Z,1.37
2018-07-15T17:31:33.780Z,1.30
2018-07-15T17:34:02.856Z,1.40
2018-07-15T17:36:32.098Z,2.35
2018-07-15T17:39:01.376Z,2.00
2018-07-15T17:41:30.940Z,5.40
2018-07-15T17:44:00.006Z,2.50
2018-07-15T17:46:29.105Z,1.53
2018-07-15T17:48:58.180Z,1.45
2018-07-15T17:51:27.304Z,7.33
2018-07-15T17:53:56.413Z,12.28
2018-07-15T17:56:25.512Z,1.67
2018-07-15T17:58:54.695Z,2.87
2018-07-15T18:01:23.901Z,4.10
2018-07-15T18:03:52.991Z,1.40
2018-07-15T18:06:22.240Z,1.55
2018-07-15T18:08:51.308Z,3.30
2018-07-15T18:11:20.483Z,3.60
2018-07-15T18:13:49.639Z,1.40
2018-07-15T18:16:18.960Z,1.30
2018-07-15T18:18:48.091Z,1.40
2018-07-15T18:21:17.231Z,3.65
2018-07-15T18:23:46.344Z,1.63
2018-07-15T18:26:15.523Z,1.45
2018-07-15T18:28:44.643Z,1.33
2018-07-15T18:31:13.799Z,1.40
2018-07-15T18:33:42.952Z,1.47
2018-07-15T18:36:12.154Z,2.83
2018-07-15T18:38:41.452Z,1.67
2018-07-15T18:41:10.629Z,1.20
2018-07-15T18:43:39.837Z,1.95
2018-07-15T18:46:09.088Z,3.33
2018-07-15T18:48:38.218Z,2.30
2018-07-15T18:51:07.336Z,2.90
2018-07-15T18:53:36.636Z,1.50
2018-07-15T18:56:06.007Z,3.20
2018-07-15T18:58:35.305Z,2.67
2018-07-15T19:01:04.490Z,1.87
2018-07-15T19:03:33.720Z,1.77
2018-07-15T19:06:02.980Z,3.15
2018-07-15T19:08:32.157Z,1.20
2018-07-15T19:11:01.319Z,2.77
2018-07-15T19:13:30.518Z,1.40
2018-07-15T19:15:59.685Z,2.07
2018-07-15T19:18:28.832Z,4.73
2018-07-15T19:20:58.933Z,4.42
2018-07-15T19:23:28.124Z,2.83
2018-07-15T19:25:57.262Z,1.40
2018-07-15T19:28:26.468Z,2.73
2018-07-15T19:30:55.591Z,1.57
2018-07-15T19:33:25.785Z,1.93
2018-07-15T19:35:54.932Z,2.57
2018-07-15T19:38:24.064Z,1.57
2018-07-15T19:40:53.184Z,1.37
2018-07-15T19:43:22.348Z,2.35
2018-07-15T19:45:51.481Z,4.17
2018-07-15T19:48:20.618Z,5.00
2018-07-15T19:50:49.696Z,2.93
2018-07-15T19:53:19.072Z,5.80
2018-07-15T19:55:48.229Z,4.53
2018-07-15T19:58:17.460Z,11.23
2018-07-15T20:00:46.652Z,2.83
2018-07-15T20:03:15.938Z,1.77
2018-07-15T20:05:45.108Z,5.00
2018-07-15T20:08:14.288Z,4.08
2018-07-15T20:10:44.152Z,3.03
2018-07-15T20:13:13.365Z,1.97
2018-07-15T20:15:42.458Z,3.87
2018-07-15T20:18:11.532Z,2.90
2018-07-15T20:20:40.649Z,8.10
2018-07-15T20:23:09.745Z,2.35
2018-07-15T20:25:38.929Z,4.10
2018-07-15T20:28:08.225Z,11.20
2018-07-15T20:30:37.571Z,1.80
2018-07-15T20:33:06.992Z,5.10
2018-07-15T20:35:36.283Z,2.47
2018-07-15T20:38:05.515Z,5.77
2018-07-15T20:40:34.641Z,2.40
2018-07-15T20:43:03.847Z,3.77
2018-07-15T20:45:33.299Z,1.97
2018-07-15T20:48:02.457Z,1.70
2018-07-15T20:50:31.803Z,3.70
2018-07-15T20:53:00.842Z,2.40
2018-07-15T20:55:30.010Z,2.30
2018-07-15T20:57:59.257Z,5.50
2018-07-15T21:00:28.428Z,2.13
2018-07-15T21:02:57.867Z,4.53
2018-07-15T21:05:27.029Z,2.13
2018-07-15T21:07:56.135Z,2.20
2018-07-15T21:10:25.220Z,3.93
2018-07-15T21:12:54.353Z,5.70
2018-07-15T21:15:23.463Z,3.20
2018-07-15T21:17:52.576Z,3.00
2018-07-15T21:20:21.727Z,6.83
2018-07-15T21:22:50.820Z,3.80
2018-07-15T21:25:20.068Z,3.08
2018-07-15T21:27:49.259Z,2.33
2018-07-15T21:30:18.348Z,2.60
2018-07-15T21:32:47.479Z,7.33
2018-07-15T21:35:16.573Z,2.62
2018-07-15T21:37:45.666Z,8.00
2018-07-15T21:40:14.736Z,2.43
2018-07-15T21:42:43.849Z,2.30
2018-07-15T21:45:12.912Z,1.93
2018-07-15T21:47:42.004Z,5.70
2018-07-15T21:50:11.117Z,5.50
2018-07-15T21:52:40.217Z,4.27
2018-07-15T21:55:09.284Z,5.33
2018-07-15T21:57:38.427Z,10.33
2018-07-15T22:00:08.217Z,4.00
2018-07-15T22:02:37.357Z,6.43
2018-07-15T22:05:06.449Z,3.40
2018-07-15T22:07:46.956Z,3.50
2018-07-15T22:10:22.552Z,7.30
2018-07-15T22:12:51.671Z,3.00
2018-07-15T22:15:20.749Z,4.20
2018-07-15T22:17:49.845Z,8.97
2018-07-15T22:20:18.916Z,2.87
2018-07-15T22:22:48.005Z,4.67
2018-07-15T22:25:17.102Z,3.97
2018-07-15T22:27:46.216Z,6.77
2018-07-15T22:30:15.305Z,3.80
2018-07-15T22:32:44.439Z,10.67
2018-07-15T22:35:13.538Z,9.43
2018-07-15T22:37:42.720Z,2.63
2018-07-15T22:40:11.835Z,3.83
2018-07-15T22:42:40.918Z,3.93
2018-07-15T22:45:10.021Z,10.10
2018-07-15T22:47:39.093Z,4.50
2018-07-15T22:50:08.353Z,4.23
2018-07-15T22:52:37.428Z,3.73
2018-07-15T22:55:06.607Z,6.73
2018-07-15T22:57:35.708Z,7.43
2018-07-15T23:00:05.486Z,5.10
2018-07-15T23:02:34.564Z,4.53
2018-07-15T23:05:46.648Z,7.60
2018-07-15T23:08:15.717Z,4.30
2018-07-15T23:10:44.820Z,4.93
2018-07-15T23:13:14.326Z,19.53
2018-07-15T23:15:43.754Z,4.50
2018-07-15T23:18:12.837Z,9.40
2018-07-15T23:20:42.649Z,5.03
2018-07-15T23:23:12.132Z,4.83
2018-07-15T23:25:41.224Z,4.10
2018-07-15T23:28:11.246Z,9.63
2018-07-15T23:30:41.059Z,6.70
2018-07-15T23:33:10.536Z,5.20
2018-07-15T23:35:39.689Z,5.00
2018-07-15T23:38:08.716Z,5.77
2018-07-15T23:40:37.855Z,4.83
2018-07-15T23:43:06.921Z,5.53
2018-07-15T23:45:36.668Z,6.07
2018-07-15T23:48:05.843Z,4.77
2018-07-15T23:50:34.932Z,4.40
2018-07-15T23:53:04.005Z,7.70
2018-07-15T23:55:33.111Z,11.03
2018-07-15T23:58:02.241Z,5.70
